sensor_id;sensor_type;location;lat;lon;timestamp;P1;durP1;ratioP1;P2;durP2;ratioP2
37241;SDS011;23135;51.078;12.108;2022-10-30T00:00:15;20.63;;;5.95;;
37241;SDS011;23135;51.078;12.108;2022-10-30T00:02:41;23.25;;;6.80;;
37241;SDS011;23135;51.078;12.108;2022-10-30T00:05:07;18.35;;;5.57;;
37241;SDS011;23135;51.078;12.108;2022-10-30T00:07:33;21.42;;;6.20;;
37241;SDS011;23135;51.078;12.108;2022-10-30T00:09:58;34.40;;;6.50;;
37241;SDS011;23135;51.078;12.108;2022-10-30T00:12:24;19.58;;;5.97;;
37241;SDS011;23135;51.078;12.108;2022-10-30T00:14:50;20.13;;;5.65;;
37241;SDS011;23135;51.078;12.108;2022-10-30T00:17:15;15.95;;;5.10;;
37241;SDS011;23135;51.078;12.108;2022-10-30T00:19:41;16.25;;;4.78;;
37241;SDS011;23135;51.078;12.108;2022-10-30T00:22:07;21.95;;;5.60;;
37241;SDS011;23135;51.078;12.108;2022-10-30T00:24:33;19.13;;;5.05;;
37241;SDS011;23135;51.078;12.108;2022-10-30T00:26:59;13.63;;;5.50;;
37241;SDS011;23135;51.078;12.108;2022-10-30T00:29:24;15.10;;;5.75;;
37241;SDS011;23135;51.078;12.108;2022-10-30T00:31:51;14.00;;;5.10;;
37241;SDS011;23135;51.078;12.108;2022-10-30T00:34:16;17.92;;;6.07;;
37241;SDS011;23135;51.078;12.108;2022-10-30T00:36:42;10.05;;;4.65;;
37241;SDS011;23135;51.078;12.108;2022-10-30T00:39:08;19.50;;;4.97;;
37241;SDS011;23135;51.078;12.108;2022-10-30T00:41:33;17.70;;;5.00;;
37241;SDS011;23135;51.078;12.108;2022-10-30T00:43:59;12.27;;;4.57;;
37241;SDS011;23135;51.078;12.108;2022-10-30T00:48:57;12.60;;;5.38;;
37241;SDS011;23135;51.078;12.108;2022-10-30T00:51:27;13.50;;;4.32;;
37241;SDS011;23135;51.078;12.108;2022-10-30T00:53:55;13.75;;;4.43;;
37241;SDS011;23135;51.078;12.108;2022-10-30T00:56:23;11.52;;;4.57;;
37241;SDS011;23135;51.078;12.108;2022-10-30T00:58:51;22.48;;;5.80;;
37241;SDS011;23135;51.078;12.108;2022-10-30T01:01:23;20.88;;;5.97;;
37241;SDS011;23135;51.078;12.108;2022-10-30T01:03:52;16.60;;;4.65;;
37241;SDS011;23135;51.078;12.108;2022-10-30T01:06:21;14.73;;;4.53;;
37241;SDS011;23135;51.078;12.108;2022-10-30T01:08:47;22.90;;;4.68;;
37241;SDS011;23135;51.078;12.108;2022-10-30T01:11:14;23.08;;;4.65;;
37241;SDS011;23135;51.078;12.108;2022-10-30T01:13:40;16.23;;;5.78;;
37241;SDS011;23135;51.078;12.108;2022-10-30T01:16:10;13.38;;;3.92;;
37241;SDS011;23135;51.078;12.108;2022-10-30T01:19:02;13.30;;;3.90;;
37241;SDS011;23135;51.078;12.108;2022-10-30T01:27:12;13.20;;;4.00;;
37241;SDS011;23135;51.078;12.108;2022-10-30T01:29:54;18.05;;;3.83;;
37241;SDS011;23135;51.078;12.108;2022-10-30T01:40:15;25.50;;;4.47;;
37241;SDS011;23135;51.078;12.108;2022-10-30T01:42:56;9.43;;;3.60;;
37241;SDS011;23135;51.078;12.108;2022-10-30T01:48:26;14.27;;;3.53;;
37241;SDS011;23135;51.078;12.108;2022-10-30T01:54:27;10.77;;;3.28;;
37241;SDS011;23135;51.078;12.108;2022-10-30T01:57:13;6.60;;;2.63;;
37241;SDS011;23135;51.078;12.108;2022-10-30T02:02:19;11.07;;;3.97;;
37241;SDS011;23135;51.078;12.108;2022-10-30T02:04:45;10.93;;;3.38;;
37241;SDS011;23135;51.078;12.108;2022-10-30T02:07:10;14.13;;;3.25;;
37241;SDS011;23135;51.078;12.108;2022-10-30T02:09:37;12.30;;;4.45;;
37241;SDS011;23135;51.078;12.108;2022-10-30T02:12:03;15.13;;;3.35;;
37241;SDS011;23135;51.078;12.108;2022-10-30T02:14:35;20.23;;;4.68;;
37241;SDS011;23135;51.078;12.108;2022-10-30T02:17:04;15.95;;;4.05;;
37241;SDS011;23135;51.078;12.108;2022-10-30T02:19:31;16.48;;;3.80;;
37241;SDS011;23135;51.078;12.108;2022-10-30T02:21:57;16.55;;;4.45;;
37241;SDS011;23135;51.078;12.108;2022-10-30T02:24:23;13.30;;;4.00;;
37241;SDS011;23135;51.078;12.108;2022-10-30T02:26:48;22.92;;;4.20;;
37241;SDS011;23135;51.078;12.108;2022-10-30T02:29:14;11.65;;;3.50;;
37241;SDS011;23135;51.078;12.108;2022-10-30T02:31:41;11.60;;;3.72;;
37241;SDS011;23135;51.078;12.108;2022-10-30T02:34:06;9.98;;;3.75;;
37241;SDS011;23135;51.078;12.108;2022-10-30T02:36:32;19.55;;;3.70;;
37241;SDS011;23135;51.078;12.108;2022-10-30T02:38:58;8.80;;;3.30;;
37241;SDS011;23135;51.078;12.108;2022-10-30T02:41:24;14.43;;;3.70;;
37241;SDS011;23135;51.078;12.108;2022-10-30T02:43:50;13.23;;;4.28;;
37241;SDS011;23135;51.078;12.108;2022-10-30T02:46:17;14.93;;;3.63;;
37241;SDS011;23135;51.078;12.108;2022-10-30T02:48:43;22.15;;;4.70;;
37241;SDS011;23135;51.078;12.108;2022-10-30T02:51:08;16.33;;;4.15;;
37241;SDS011;23135;51.078;12.108;2022-10-30T02:53:34;12.75;;;3.97;;
37241;SDS011;23135;51.078;12.108;2022-10-30T02:56:04;16.45;;;3.30;;
37241;SDS011;23135;51.078;12.108;2022-10-30T02:58:31;17.52;;;4.28;;
37241;SDS011;23135;51.078;12.108;2022-10-30T03:00:56;12.27;;;3.72;;
37241;SDS011;23135;51.078;12.108;2022-10-30T03:03:22;17.85;;;4.32;;
37241;SDS011;23135;51.078;12.108;2022-10-30T03:05:48;16.02;;;3.20;;
37241;SDS011;23135;51.078;12.108;2022-10-30T03:08:13;8.57;;;3.30;;
37241;SDS011;23135;51.078;12.108;2022-10-30T03:10:39;18.55;;;5.10;;
37241;SDS011;23135;51.078;12.108;2022-10-30T03:13:04;15.18;;;3.47;;
37241;SDS011;23135;51.078;12.108;2022-10-30T03:15:30;15.85;;;4.40;;
37241;SDS011;23135;51.078;12.108;2022-10-30T03:17:56;13.00;;;3.58;;
37241;SDS011;23135;51.078;12.108;2022-10-30T03:20:21;12.93;;;3.63;;
37241;SDS011;23135;51.078;12.108;2022-10-30T03:22:47;15.10;;;3.45;;
37241;SDS011;23135;51.078;12.108;2022-10-30T03:25:12;12.00;;;4.18;;
37241;SDS011;23135;51.078;12.108;2022-10-30T03:27:38;10.77;;;3.70;;
37241;SDS011;23135;51.078;12.108;2022-10-30T03:30:04;18.58;;;4.25;;
37241;SDS011;23135;51.078;12.108;2022-10-30T03:32:30;9.98;;;3.95;;
37241;SDS011;23135;51.078;12.108;2022-10-30T03:34:55;13.93;;;3.90;;
37241;SDS011;23135;51.078;12.108;2022-10-30T03:37:21;11.40;;;5.13;;
37241;SDS011;23135;51.078;12.108;2022-10-30T03:39:46;22.55;;;5.90;;
37241;SDS011;23135;51.078;12.108;2022-10-30T03:42:12;12.73;;;4.53;;
37241;SDS011;23135;51.078;12.108;2022-10-30T03:44:38;18.17;;;5.20;;
37241;SDS011;23135;51.078;12.108;2022-10-30T03:47:03;17.75;;;5.75;;
37241;SDS011;23135;51.078;12.108;2022-10-30T03:49:29;13.48;;;4.15;;
37241;SDS011;23135;51.078;12.108;2022-10-30T03:51:54;15.75;;;3.85;;
37241;SDS011;23135;51.078;12.108;2022-10-30T03:54:20;12.43;;;4.15;;
37241;SDS011;23135;51.078;12.108;2022-10-30T03:56:45;15.35;;;3.15;;
37241;SDS011;23135;51.078;12.108;2022-10-30T03:59:11;18.25;;;3.47;;
37241;SDS011;23135;51.078;12.108;2022-10-30T04:01:37;12.25;;;3.97;;
37241;SDS011;23135;51.078;12.108;2022-10-30T04:04:02;15.10;;;4.38;;
37241;SDS011;23135;51.078;12.108;2022-10-30T04:06:28;16.65;;;5.03;;
37241;SDS011;23135;51.078;12.108;2022-10-30T04:08:54;16.50;;;4.40;;
37241;SDS011;23135;51.078;12.108;2022-10-30T04:11:19;11.25;;;3.08;;
37241;SDS011;23135;51.078;12.108;2022-10-30T04:13:45;14.00;;;4.25;;
37241;SDS011;23135;51.078;12.108;2022-10-30T04:16:11;18.20;;;3.90;;
37241;SDS011;23135;51.078;12.108;2022-10-30T04:18:36;19.27;;;4.30;;
37241;SDS011;23135;51.078;12.108;2022-10-30T04:21:02;13.15;;;3.72;;
37241;SDS011;23135;51.078;12.108;2022-10-30T04:23:28;8.23;;;4.00;;
37241;SDS011;23135;51.078;12.108;2022-10-30T04:25:54;13.02;;;3.67;;
37241;SDS011;23135;51.078;12.108;2022-10-30T04:28:20;15.73;;;4.38;;
37241;SDS011;23135;51.078;12.108;2022-10-30T04:30:46;15.00;;;4.18;;
37241;SDS011;23135;51.078;12.108;2022-10-30T04:33:12;17.80;;;4.15;;
37241;SDS011;23135;51.078;12.108;2022-10-30T04:35:38;12.65;;;4.32;;
37241;SDS011;23135;51.078;12.108;2022-10-30T04:38:06;16.55;;;4.72;;
37241;SDS011;23135;51.078;12.108;2022-10-30T04:40:34;13.07;;;4.00;;
37241;SDS011;23135;51.078;12.108;2022-10-30T04:43:01;18.17;;;4.07;;
37241;SDS011;23135;51.078;12.108;2022-10-30T04:45:28;17.23;;;5.32;;
37241;SDS011;23135;51.078;12.108;2022-10-30T04:48:01;14.63;;;3.88;;
37241;SDS011;23135;51.078;12.108;2022-10-30T04:50:27;14.02;;;4.43;;
37241;SDS011;23135;51.078;12.108;2022-10-30T04:52:58;12.25;;;3.45;;
37241;SDS011;23135;51.078;12.108;2022-10-30T04:55:25;11.25;;;3.55;;
37241;SDS011;23135;51.078;12.108;2022-10-30T04:57:54;8.55;;;3.33;;
37241;SDS011;23135;51.078;12.108;2022-10-30T05:00:20;16.10;;;5.03;;
37241;SDS011;23135;51.078;12.108;2022-10-30T05:02:46;10.98;;;3.53;;
37241;SDS011;23135;51.078;12.108;2022-10-30T05:05:11;16.60;;;4.32;;
37241;SDS011;23135;51.078;12.108;2022-10-30T05:07:37;8.30;;;3.15;;
37241;SDS011;23135;51.078;12.108;2022-10-30T05:10:03;18.25;;;3.58;;
37241;SDS011;23135;51.078;12.108;2022-10-30T05:12:28;11.52;;;3.33;;
37241;SDS011;23135;51.078;12.108;2022-10-30T05:14:54;13.10;;;5.18;;
37241;SDS011;23135;51.078;12.108;2022-10-30T05:17:20;16.20;;;3.30;;
37241;SDS011;23135;51.078;12.108;2022-10-30T05:19:45;18.17;;;3.80;;
37241;SDS011;23135;51.078;12.108;2022-10-30T05:22:11;18.42;;;4.40;;
37241;SDS011;23135;51.078;12.108;2022-10-30T05:24:37;10.95;;;3.60;;
37241;SDS011;23135;51.078;12.108;2022-10-30T05:27:02;17.13;;;3.53;;
37241;SDS011;23135;51.078;12.108;2022-10-30T05:29:28;13.52;;;3.60;;
37241;SDS011;23135;51.078;12.108;2022-10-30T05:31:53;13.43;;;3.58;;
37241;SDS011;23135;51.078;12.108;2022-10-30T05:34:19;12.80;;;3.25;;
37241;SDS011;23135;51.078;12.108;2022-10-30T05:36:45;19.00;;;4.32;;
37241;SDS011;23135;51.078;12.108;2022-10-30T05:39:10;13.30;;;3.40;;
37241;SDS011;23135;51.078;12.108;2022-10-30T05:41:36;17.05;;;4.78;;
37241;SDS011;23135;51.078;12.108;2022-10-30T05:44:01;8.45;;;3.28;;
37241;SDS011;23135;51.078;12.108;2022-10-30T05:46:27;21.38;;;4.50;;
37241;SDS011;23135;51.078;12.108;2022-10-30T05:48:53;13.70;;;2.80;;
37241;SDS011;23135;51.078;12.108;2022-10-30T05:51:18;13.05;;;3.78;;
37241;SDS011;23135;51.078;12.108;2022-10-30T05:53:46;10.45;;;2.40;;
37241;SDS011;23135;51.078;12.108;2022-10-30T05:56:12;8.82;;;3.25;;
37241;SDS011;23135;51.078;12.108;2022-10-30T05:58:38;12.40;;;4.00;;
37241;SDS011;23135;51.078;12.108;2022-10-30T06:01:05;8.43;;;3.42;;
37241;SDS011;23135;51.078;12.108;2022-10-30T06:03:31;12.73;;;3.70;;
37241;SDS011;23135;51.078;12.108;2022-10-30T06:05:57;20.15;;;4.47;;
37241;SDS011;23135;51.078;12.108;2022-10-30T06:08:22;10.95;;;3.28;;
37241;SDS011;23135;51.078;12.108;2022-10-30T06:10:48;8.38;;;2.95;;
37241;SDS011;23135;51.078;12.108;2022-10-30T06:13:13;19.30;;;3.90;;
37241;SDS011;23135;51.078;12.108;2022-10-30T06:15:39;19.05;;;3.72;;
37241;SDS011;23135;51.078;12.108;2022-10-30T06:18:05;18.83;;;4.10;;
37241;SDS011;23135;51.078;12.108;2022-10-30T06:20:31;22.17;;;4.65;;
37241;SDS011;23135;51.078;12.108;2022-10-30T06:22:57;16.00;;;4.63;;
37241;SDS011;23135;51.078;12.108;2022-10-30T06:25:24;10.30;;;3.75;;
37241;SDS011;23135;51.078;12.108;2022-10-30T06:27:50;9.57;;;2.38;;
37241;SDS011;23135;51.078;12.108;2022-10-30T06:30:17;11.60;;;2.63;;
37241;SDS011;23135;51.078;12.108;2022-10-30T06:32:43;21.10;;;4.50;;
37241;SDS011;23135;51.078;12.108;2022-10-30T06:35:08;12.23;;;3.00;;
37241;SDS011;23135;51.078;12.108;2022-10-30T06:37:35;14.00;;;3.17;;
37241;SDS011;23135;51.078;12.108;2022-10-30T06:40:03;12.93;;;3.28;;
37241;SDS011;23135;51.078;12.108;2022-10-30T06:42:30;14.98;;;3.67;;
37241;SDS011;23135;51.078;12.108;2022-10-30T06:44:56;8.35;;;3.40;;
37241;SDS011;23135;51.078;12.108;2022-10-30T06:47:22;9.30;;;3.47;;
37241;SDS011;23135;51.078;12.108;2022-10-30T06:49:47;8.38;;;3.08;;
37241;SDS011;23135;51.078;12.108;2022-10-30T06:52:13;12.48;;;3.47;;
37241;SDS011;23135;51.078;12.108;2022-10-30T06:54:38;14.48;;;4.80;;
37241;SDS011;23135;51.078;12.108;2022-10-30T06:57:04;9.90;;;2.95;;
37241;SDS011;23135;51.078;12.108;2022-10-30T06:59:30;8.43;;;2.60;;
37241;SDS011;23135;51.078;12.108;2022-10-30T07:01:55;7.15;;;3.75;;
37241;SDS011;23135;51.078;12.108;2022-10-30T07:04:21;14.65;;;2.80;;
37241;SDS011;23135;51.078;12.108;2022-10-30T07:06:46;14.25;;;2.83;;
37241;SDS011;23135;51.078;12.108;2022-10-30T07:09:12;14.63;;;3.75;;
37241;SDS011;23135;51.078;12.108;2022-10-30T07:11:37;10.45;;;2.80;;
37241;SDS011;23135;51.078;12.108;2022-10-30T07:14:06;8.05;;;3.10;;
37241;SDS011;23135;51.078;12.108;2022-10-30T07:16:31;11.95;;;2.50;;
37241;SDS011;23135;51.078;12.108;2022-10-30T07:18:57;20.85;;;3.25;;
37241;SDS011;23135;51.078;12.108;2022-10-30T07:21:24;10.10;;;3.15;;
37241;SDS011;23135;51.078;12.108;2022-10-30T07:23:50;14.40;;;3.33;;
37241;SDS011;23135;51.078;12.108;2022-10-30T07:26:16;17.10;;;4.55;;
37241;SDS011;23135;51.078;12.108;2022-10-30T07:28:41;16.40;;;3.25;;
37241;SDS011;23135;51.078;12.108;2022-10-30T07:31:07;15.35;;;3.13;;
37241;SDS011;23135;51.078;12.108;2022-10-30T07:33:32;9.23;;;2.80;;
37241;SDS011;23135;51.078;12.108;2022-10-30T07:36:01;13.80;;;2.10;;
37241;SDS011;23135;51.078;12.108;2022-10-30T07:38:27;12.45;;;2.75;;
37241;SDS011;23135;51.078;12.108;2022-10-30T07:40:52;16.70;;;2.53;;
37241;SDS011;23135;51.078;12.108;2022-10-30T07:43:19;12.32;;;2.50;;
37241;SDS011;23135;51.078;12.108;2022-10-30T07:45:45;8.30;;;2.45;;
37241;SDS011;23135;51.078;12.108;2022-10-30T07:48:12;14.80;;;2.85;;
37241;SDS011;23135;51.078;12.108;2022-10-30T07:50:37;10.05;;;3.25;;
37241;SDS011;23135;51.078;12.108;2022-10-30T07:53:03;13.30;;;2.88;;
37241;SDS011;23135;51.078;12.108;2022-10-30T07:55:28;17.73;;;2.25;;
37241;SDS011;23135;51.078;12.108;2022-10-30T07:57:54;8.95;;;2.28;;
37241;SDS011;23135;51.078;12.108;2022-10-30T08:00:20;11.80;;;3.33;;
37241;SDS011;23135;51.078;12.108;2022-10-30T08:02:49;16.17;;;3.50;;
37241;SDS011;23135;51.078;12.108;2022-10-30T08:05:16;16.52;;;3.83;;
37241;SDS011;23135;51.078;12.108;2022-10-30T08:07:44;10.43;;;2.83;;
37241;SDS011;23135;51.078;12.108;2022-10-30T08:10:10;12.00;;;2.90;;
37241;SDS011;23135;51.078;12.108;2022-10-30T08:12:36;19.52;;;4.53;;
37241;SDS011;23135;51.078;12.108;2022-10-30T08:15:03;9.85;;;2.80;;
37241;SDS011;23135;51.078;12.108;2022-10-30T08:17:29;8.90;;;1.63;;
37241;SDS011;23135;51.078;12.108;2022-10-30T08:19:55;13.90;;;2.92;;
37241;SDS011;23135;51.078;12.108;2022-10-30T08:22:21;9.82;;;2.55;;
37241;SDS011;23135;51.078;12.108;2022-10-30T08:24:46;11.20;;;3.03;;
37241;SDS011;23135;51.078;12.108;2022-10-30T08:27:12;13.35;;;2.60;;
37241;SDS011;23135;51.078;12.108;2022-10-30T08:29:38;13.85;;;2.35;;
37241;SDS011;23135;51.078;12.108;2022-10-30T08:32:04;11.80;;;2.58;;
37241;SDS011;23135;51.078;12.108;2022-10-30T08:34:30;4.72;;;1.90;;
37241;SDS011;23135;51.078;12.108;2022-10-30T08:36:56;10.85;;;1.80;;
37241;SDS011;23135;51.078;12.108;2022-10-30T08:39:22;15.65;;;3.08;;
37241;SDS011;23135;51.078;12.108;2022-10-30T08:41:48;11.80;;;2.25;;
37241;SDS011;23135;51.078;12.108;2022-10-30T08:44:13;13.05;;;3.33;;
37241;SDS011;23135;51.078;12.108;2022-10-30T08:46:39;13.95;;;2.05;;
37241;SDS011;23135;51.078;12.108;2022-10-30T08:49:04;14.23;;;2.90;;
37241;SDS011;23135;51.078;12.108;2022-10-30T08:51:31;12.95;;;2.35;;
37241;SDS011;23135;51.078;12.108;2022-10-30T08:53:58;13.70;;;2.95;;
37241;SDS011;23135;51.078;12.108;2022-10-30T08:56:23;10.43;;;1.83;;
37241;SDS011;23135;51.078;12.108;2022-10-30T08:58:49;11.45;;;2.45;;
37241;SDS011;23135;51.078;12.108;2022-10-30T09:01:16;13.50;;;2.65;;
37241;SDS011;23135;51.078;12.108;2022-10-30T09:03:43;10.65;;;1.80;;
37241;SDS011;23135;51.078;12.108;2022-10-30T09:06:09;9.95;;;2.60;;
37241;SDS011;23135;51.078;12.108;2022-10-30T09:08:34;13.95;;;3.97;;
37241;SDS011;23135;51.078;12.108;2022-10-30T09:11:00;8.15;;;1.90;;
37241;SDS011;23135;51.078;12.108;2022-10-30T09:13:26;12.38;;;3.13;;
37241;SDS011;23135;51.078;12.108;2022-10-30T09:15:51;8.82;;;2.92;;
37241;SDS011;23135;51.078;12.108;2022-10-30T09:18:17;10.05;;;3.35;;
37241;SDS011;23135;51.078;12.108;2022-10-30T09:20:43;10.27;;;3.72;;
37241;SDS011;23135;51.078;12.108;2022-10-30T09:23:09;17.77;;;3.20;;
37241;SDS011;23135;51.078;12.108;2022-10-30T09:25:34;9.93;;;3.13;;
37241;SDS011;23135;51.078;12.108;2022-10-30T09:28:00;21.98;;;3.95;;
37241;SDS011;23135;51.078;12.108;2022-10-30T09:30:26;20.42;;;3.90;;
37241;SDS011;23135;51.078;12.108;2022-10-30T09:35:20;13.70;;;2.50;;
37241;SDS011;23135;51.078;12.108;2022-10-30T09:37:46;13.95;;;2.80;;
37241;SDS011;23135;51.078;12.108;2022-10-30T09:40:16;10.38;;;2.25;;
37241;SDS011;23135;51.078;12.108;2022-10-30T09:42:53;10.48;;;2.17;;
37241;SDS011;23135;51.078;12.108;2022-10-30T09:53:53;16.80;;;2.90;;
37241;SDS011;23135;51.078;12.108;2022-10-30T09:56:30;11.68;;;2.10;;
37241;SDS011;23135;51.078;12.108;2022-10-30T10:04:37;16.58;;;3.15;;
37241;SDS011;23135;51.078;12.108;2022-10-30T10:07:15;15.57;;;2.65;;
37241;SDS011;23135;51.078;12.108;2022-10-30T10:09:46;16.65;;;2.63;;
37241;SDS011;23135;51.078;12.108;2022-10-30T10:12:32;19.30;;;2.78;;
37241;SDS011;23135;51.078;12.108;2022-10-30T10:14:58;11.32;;;1.70;;
37241;SDS011;23135;51.078;12.108;2022-10-30T10:17:34;12.43;;;2.58;;
37241;SDS011;23135;51.078;12.108;2022-10-30T10:20:03;18.95;;;3.08;;
37241;SDS011;23135;51.078;12.108;2022-10-30T10:22:48;12.15;;;2.47;;
37241;SDS011;23135;51.078;12.108;2022-10-30T10:25:15;14.35;;;2.75;;
37241;SDS011;23135;51.078;12.108;2022-10-30T10:28:05;14.25;;;2.42;;
37241;SDS011;23135;51.078;12.108;2022-10-30T10:31:05;11.60;;;2.22;;
37241;SDS011;23135;51.078;12.108;2022-10-30T10:36:34;5.93;;;2.33;;
37241;SDS011;23135;51.078;12.108;2022-10-30T10:41:47;13.35;;;2.97;;
37241;SDS011;23135;51.078;12.108;2022-10-30T10:44:43;14.80;;;2.70;;
37241;SDS011;23135;51.078;12.108;2022-10-30T10:52:53;12.18;;;3.25;;
37241;SDS011;23135;51.078;12.108;2022-10-30T10:55:32;8.00;;;2.08;;
37241;SDS011;23135;51.078;12.108;2022-10-30T11:00:55;14.13;;;3.38;;
37241;SDS011;23135;51.078;12.108;2022-10-30T11:06:27;16.08;;;2.88;;
37241;SDS011;23135;51.078;12.108;2022-10-30T11:09:15;9.55;;;2.25;;
37241;SDS011;23135;51.078;12.108;2022-10-30T11:11:45;14.68;;;2.10;;
37241;SDS011;23135;51.078;12.108;2022-10-30T11:14:19;15.25;;;2.30;;
37241;SDS011;23135;51.078;12.108;2022-10-30T11:19:31;13.77;;;2.47;;
37241;SDS011;23135;51.078;12.108;2022-10-30T11:21:57;16.75;;;1.90;;
37241;SDS011;23135;51.078;12.108;2022-10-30T11:24:30;4.78;;;1.55;;
37241;SDS011;23135;51.078;12.108;2022-10-30T11:27:43;8.23;;;2.22;;
37241;SDS011;23135;51.078;12.108;2022-10-30T11:30:03;15.13;;;2.85;;
37241;SDS011;23135;51.078;12.108;2022-10-30T11:32:30;12.40;;;2.05;;
37241;SDS011;23135;51.078;12.108;2022-10-30T11:35:01;15.00;;;2.95;;
37241;SDS011;23135;51.078;12.108;2022-10-30T11:37:37;13.82;;;2.75;;
37241;SDS011;23135;51.078;12.108;2022-10-30T11:45:03;15.52;;;2.28;;
37241;SDS011;23135;51.078;12.108;2022-10-30T11:47:38;13.50;;;2.40;;
37241;SDS011;23135;51.078;12.108;2022-10-30T11:50:06;14.52;;;2.83;;
37241;SDS011;23135;51.078;12.108;2022-10-30T11:52:46;24.08;;;3.05;;
37241;SDS011;23135;51.078;12.108;2022-10-30T11:57:41;18.23;;;2.85;;
37241;SDS011;23135;51.078;12.108;2022-10-30T12:00:14;11.82;;;1.90;;
37241;SDS011;23135;51.078;12.108;2022-10-30T12:02:41;15.32;;;3.03;;
37241;SDS011;23135;51.078;12.108;2022-10-30T12:07:54;8.10;;;2.33;;
37241;SDS011;23135;51.078;12.108;2022-10-30T12:10:41;8.30;;;2.03;;
37241;SDS011;23135;51.078;12.108;2022-10-30T12:13:14;8.68;;;2.17;;
37241;SDS011;23135;51.078;12.108;2022-10-30T12:15:42;8.38;;;2.35;;
37241;SDS011;23135;51.078;12.108;2022-10-30T12:18:20;15.70;;;2.92;;
37241;SDS011;23135;51.078;12.108;2022-10-30T12:20:51;13.77;;;2.03;;
37241;SDS011;23135;51.078;12.108;2022-10-30T12:23:20;19.08;;;2.55;;
37241;SDS011;23135;51.078;12.108;2022-10-30T12:25:51;14.10;;;3.42;;
37241;SDS011;23135;51.078;12.108;2022-10-30T12:28:19;9.57;;;2.00;;
37241;SDS011;23135;51.078;12.108;2022-10-30T12:30:51;11.65;;;3.13;;
37241;SDS011;23135;51.078;12.108;2022-10-30T12:33:26;14.52;;;2.90;;
37241;SDS011;23135;51.078;12.108;2022-10-30T12:35:59;21.15;;;2.50;;
37241;SDS011;23135;51.078;12.108;2022-10-30T12:38:44;11.68;;;2.58;;
37241;SDS011;23135;51.078;12.108;2022-10-30T12:43:56;15.63;;;2.67;;
37241;SDS011;23135;51.078;12.108;2022-10-30T12:46:27;10.75;;;2.47;;
37241;SDS011;23135;51.078;12.108;2022-10-30T12:52:00;11.10;;;3.20;;
37241;SDS011;23135;51.078;12.108;2022-10-30T12:57:15;12.25;;;1.75;;
37241;SDS011;23135;51.078;12.108;2022-10-30T12:59:50;11.23;;;3.03;;
37241;SDS011;23135;51.078;12.108;2022-10-30T13:05:25;12.25;;;1.95;;
37241;SDS011;23135;51.078;12.108;2022-10-30T13:13:51;12.05;;;2.88;;
37241;SDS011;23135;51.078;12.108;2022-10-30T13:16:20;7.03;;;2.13;;
37241;SDS011;23135;51.078;12.108;2022-10-30T13:18:51;13.25;;;2.40;;
37241;SDS011;23135;51.078;12.108;2022-10-30T13:21:25;18.20;;;2.13;;
37241;SDS011;23135;51.078;12.108;2022-10-30T13:29:28;12.90;;;2.58;;
37241;SDS011;23135;51.078;12.108;2022-10-30T13:50:33;11.27;;;2.25;;
37241;SDS011;23135;51.078;12.108;2022-10-30T13:53:14;12.57;;;2.97;;
37241;SDS011;23135;51.078;12.108;2022-10-30T13:58:44;10.02;;;2.95;;
37241;SDS011;23135;51.078;12.108;2022-10-30T14:01:12;11.18;;;2.72;;
37241;SDS011;23135;51.078;12.108;2022-10-30T14:09:05;10.68;;;2.42;;
37241;SDS011;23135;51.078;12.108;2022-10-30T14:11:52;10.90;;;2.28;;
37241;SDS011;23135;51.078;12.108;2022-10-30T14:14:25;11.77;;;2.70;;
37241;SDS011;23135;51.078;12.108;2022-10-30T14:22:30;9.80;;;2.05;;
37241;SDS011;23135;51.078;12.108;2022-10-30T14:24:56;11.85;;;1.98;;
37241;SDS011;23135;51.078;12.108;2022-10-30T14:27:30;16.38;;;2.38;;
37241;SDS011;23135;51.078;12.108;2022-10-30T14:29:57;17.13;;;2.50;;
37241;SDS011;23135;51.078;12.108;2022-10-30T14:37:16;12.75;;;2.20;;
37241;SDS011;23135;51.078;12.108;2022-10-30T14:42:56;11.38;;;3.17;;
37241;SDS011;23135;51.078;12.108;2022-10-30T14:45:41;18.67;;;2.40;;
37241;SDS011;23135;51.078;12.108;2022-10-30T14:51:15;11.75;;;1.85;;
37241;SDS011;23135;51.078;12.108;2022-10-30T14:56:46;8.18;;;2.15;;
37241;SDS011;23135;51.078;12.108;2022-10-30T15:01:59;11.52;;;2.65;;
37241;SDS011;23135;51.078;12.108;2022-10-30T15:07:06;16.92;;;2.60;;
37241;SDS011;23135;51.078;12.108;2022-10-30T15:12:31;12.32;;;2.92;;
37241;SDS011;23135;51.078;12.108;2022-10-30T15:15:02;10.63;;;3.45;;
37241;SDS011;23135;51.078;12.108;2022-10-30T15:17:37;12.30;;;2.67;;
37241;SDS011;23135;51.078;12.108;2022-10-30T15:20:06;15.45;;;2.63;;
37241;SDS011;23135;51.078;12.108;2022-10-30T15:22:54;8.07;;;2.45;;
37241;SDS011;23135;51.078;12.108;2022-10-30T15:25:25;8.68;;;2.30;;
37241;SDS011;23135;51.078;12.108;2022-10-30T15:27:57;19.27;;;3.00;;
37241;SDS011;23135;51.078;12.108;2022-10-30T15:30:24;16.40;;;2.92;;
37241;SDS011;23135;51.078;12.108;2022-10-30T15:32:51;20.48;;;3.58;;
37241;SDS011;23135;51.078;12.108;2022-10-30T15:35:18;63.72;;;13.20;;
37241;SDS011;23135;51.078;12.108;2022-10-30T15:37:58;49.42;;;18.42;;
37241;SDS011;23135;51.078;12.108;2022-10-30T15:40:25;17.00;;;5.55;;
37241;SDS011;23135;51.078;12.108;2022-10-30T15:42:52;32.30;;;9.38;;
37241;SDS011;23135;51.078;12.108;2022-10-30T15:45:24;25.17;;;7.65;;
37241;SDS011;23135;51.078;12.108;2022-10-30T15:48:00;54.65;;;17.08;;
37241;SDS011;23135;51.078;12.108;2022-10-30T15:50:28;30.35;;;7.97;;
37241;SDS011;23135;51.078;12.108;2022-10-30T15:52:54;29.73;;;9.07;;
37241;SDS011;23135;51.078;12.108;2022-10-30T15:55:23;39.67;;;10.30;;
37241;SDS011;23135;51.078;12.108;2022-10-30T15:57:54;28.13;;;7.75;;
37241;SDS011;23135;51.078;12.108;2022-10-30T16:00:24;23.05;;;6.90;;
37241;SDS011;23135;51.078;12.108;2022-10-30T16:03:05;29.63;;;6.80;;
37241;SDS011;23135;51.078;12.108;2022-10-30T16:05:40;15.55;;;4.45;;
37241;SDS011;23135;51.078;12.108;2022-10-30T16:08:10;14.32;;;4.75;;
37241;SDS011;23135;51.078;12.108;2022-10-30T16:10:44;15.88;;;4.05;;
37241;SDS011;23135;51.078;12.108;2022-10-30T16:13:29;19.77;;;4.30;;
37241;SDS011;23135;51.078;12.108;2022-10-30T16:15:55;16.83;;;3.13;;
37241;SDS011;23135;51.078;12.108;2022-10-30T16:18:23;9.95;;;2.70;;
37241;SDS011;23135;51.078;12.108;2022-10-30T16:20:53;15.25;;;4.53;;
37241;SDS011;23135;51.078;12.108;2022-10-30T16:23:40;14.45;;;5.28;;
37241;SDS011;23135;51.078;12.108;2022-10-30T16:26:22;14.35;;;4.55;;
37241;SDS011;23135;51.078;12.108;2022-10-30T16:31:37;24.23;;;7.25;;
37241;SDS011;23135;51.078;12.108;2022-10-30T16:34:03;14.48;;;5.35;;
37241;SDS011;23135;51.078;12.108;2022-10-30T16:36:33;24.70;;;7.18;;
37241;SDS011;23135;51.078;12.108;2022-10-30T16:39:00;17.60;;;4.00;;
37241;SDS011;23135;51.078;12.108;2022-10-30T16:41:26;18.85;;;6.65;;
37241;SDS011;23135;51.078;12.108;2022-10-30T16:46:42;12.05;;;3.80;;
37241;SDS011;23135;51.078;12.108;2022-10-30T16:49:15;22.13;;;5.43;;
37241;SDS011;23135;51.078;12.108;2022-10-30T16:51:43;19.42;;;4.85;;
37241;SDS011;23135;51.078;12.108;2022-10-30T16:54:24;11.63;;;3.03;;
37241;SDS011;23135;51.078;12.108;2022-10-30T16:56:53;20.73;;;5.13;;
37241;SDS011;23135;51.078;12.108;2022-10-30T16:59:29;15.82;;;4.15;;
37241;SDS011;23135;51.078;12.108;2022-10-30T17:01:58;19.98;;;4.07;;
37241;SDS011;23135;51.078;12.108;2022-10-30T17:04:30;8.85;;;3.67;;
37241;SDS011;23135;51.078;12.108;2022-10-30T17:07:03;17.40;;;4.63;;